Time;durP1;ratioP1;P1;durP2;ratioP2;P2;SDS_P1;SDS_P2;PMS_P1;PMS_P2;Temp;Humidity;BMP_temperature;BMP_pressure;BME280_temperature;BME280_humidity;BME280_pressure;Samples;Min_cycle;Max_cycle;Signal;HPM_P1;HPM_P2
2022/04/10 00:00:18;;;;;;;4.62;4.17;;;;;;;;;;783473;75;26269;-75
2022/04/10 00:01:20;;;;;;;6.92;3.80;;;;;;;;;;783355;75;26308;-75
2022/04/10 00:02:29;;;;;;;6.42;3.87;;;;;;;;;;783455;75;26336;-76
2022/04/10 00:03:33;;;;;;;6.53;3.75;;;;;;;;;;783913;75;26251;-77
2022/04/10 00:04:37;;;;;;;5.70;3.90;;;;;;;;;;784781;75;26675;-77
2022/04/10 00:05:40;;;;;;;4.70;4.20;;;;;;;;;;784793;75;26235;-76
2022/04/10 00:10:37;;;;;;;4.62;4.03;;;;;;;;;;749542;79;26267;-77
2022/04/10 00:11:40;;;;;;;5.80;4.60;;;;;;;;;;749975;79;26312;-76
2022/04/10 00:12:43;;;;;;;5.85;4.47;;;;;;;;;;749557;79;26263;-75
2022/04/10 00:13:46;;;;;;;5.30;4.37;;;;;;;;;;749275;79;26283;-76
2022/04/10 00:14:50;;;;;;;4.40;4.05;;;;;;;;;;749298;79;26271;-77
2022/04/10 00:20:16;;;;;;;6.25;4.70;;;;;;;;;;735013;81;26296;-78
2022/04/10 00:30:27;;;;;;;5.30;4.37;;;;;;;;;;717529;82;26205;-78
2022/04/10 00:31:30;;;;;;;7.00;5.05;;;;;;;;;;717715;81;26293;-79
2022/04/10 00:32:36;;;;;;;6.80;5.17;;;;;;;;;;737610;80;26284;-80
2022/04/10 00:33:39;;;;;;;6.80;4.72;;;;;;;;;;725460;82;26717;-77
2022/04/10 00:34:42;;;;;;;4.97;4.22;;;;;;;;;;737284;80;26282;-75
2022/04/10 00:35:46;;;;;;;5.80;4.83;;;;;;;;;;737363;80;26286;-75
2022/04/10 00:38:49;;;;;;;5.55;4.47;;;;;;;;;;728302;81;26733;-77
2022/04/10 00:39:57;;;;;;;5.28;4.83;;;;;;;;;;738846;80;26745;-76
2022/04/10 00:41:02;;;;;;;7.55;4.67;;;;;;;;;;739529;80;26310;-77
2022/04/10 00:42:06;;;;;;;8.10;5.22;;;;;;;;;;743437;80;26296;-77
2022/04/10 00:43:09;;;;;;;5.47;4.87;;;;;;;;;;739041;80;26314;-78
2022/04/10 00:44:13;;;;;;;6.33;4.90;;;;;;;;;;738960;80;26267;-77
2022/04/10 00:45:16;;;;;;;6.05;5.22;;;;;;;;;;737150;80;26278;-77
2022/04/10 00:49:49;;;;;;;8.35;5.40;;;;;;;;;;740857;80;26202;-75
2022/04/10 00:52:15;;;;;;;6.78;5.00;;;;;;;;;;740841;80;26287;-76
2022/04/10 00:53:20;;;;;;;8.13;5.15;;;;;;;;;;740838;80;26277;-77
2022/04/10 00:54:30;;;;;;;6.92;5.70;;;;;;;;;;740891;80;26288;-76
2022/04/10 00:55:28;;;;;;;7.83;5.62;;;;;;;;;;740794;78;26347;-76
2022/04/10 00:58:34;;;;;;;7.60;6.37;;;;;;;;;;741110;80;26195;-76
2022/04/10 00:59:39;;;;;;;7.35;6.47;;;;;;;;;;758004;78;26301;-75
2022/04/10 01:00:43;;;;;;;9.48;6.72;;;;;;;;;;758031;78;26306;-77
2022/04/10 01:01:47;;;;;;;11.08;7.00;;;;;;;;;;739773;80;26729;-76
2022/04/10 01:02:51;;;;;;;9.45;6.70;;;;;;;;;;745465;79;26724;-78
2022/04/10 01:03:55;;;;;;;9.83;7.25;;;;;;;;;;758119;78;26260;-76
2022/04/10 01:05:00;;;;;;;9.38;7.47;;;;;;;;;;745067;79;26763;-75
2022/04/10 01:08:03;;;;;;;9.83;7.42;;;;;;;;;;745030;79;26310;-76
2022/04/10 01:20:03;;;;;;;9.13;6.55;;;;;;;;;;716624;83;26266;-77
2022/04/10 01:21:08;;;;;;;7.62;6.92;;;;;;;;;;716542;83;26389;-77
2022/04/10 01:22:25;;;;;;;9.45;7.00;;;;;;;;;;716466;83;26309;-76
2022/04/10 01:23:29;;;;;;;10.60;6.78;;;;;;;;;;716464;83;26413;-75
2022/04/10 01:24:36;;;;;;;9.88;6.78;;;;;;;;;;730052;77;26405;-76
2022/04/10 01:25:39;;;;;;;9.83;6.87;;;;;;;;;;768677;77;26278;-75
2022/04/10 01:29:17;;;;;;;7.90;6.58;;;;;;;;;;777156;74;26241;-77
2022/04/10 01:30:23;;;;;;;8.95;7.05;;;;;;;;;;777121;76;26744;-77
2022/04/10 01:31:28;;;;;;;9.90;7.40;;;;;;;;;;777060;76;26295;-76
2022/04/10 01:32:30;;;;;;;7.30;6.58;;;;;;;;;;776708;76;26245;-75
2022/04/10 01:33:33;;;;;;;10.18;7.28;;;;;;;;;;776654;76;26245;-77
2022/04/10 01:34:38;;;;;;;10.23;7.33;;;;;;;;;;764999;77;26319;-76
2022/04/10 01:35:40;;;;;;;8.18;6.90;;;;;;;;;;742992;80;26342;-77
2022/04/10 01:39:16;;;;;;;6.80;6.10;;;;;;;;;;779575;76;26686;-75
2022/04/10 01:40:20;;;;;;;9.55;6.45;;;;;;;;;;779521;76;26721;-77
2022/04/10 01:41:25;;;;;;;10.30;7.33;;;;;;;;;;779530;76;26260;-75
2022/04/10 01:42:32;;;;;;;8.55;6.05;;;;;;;;;;779506;76;26248;-76
2022/04/10 01:43:36;;;;;;;8.83;6.15;;;;;;;;;;779648;76;26230;-76
2022/04/10 01:44:47;;;;;;;7.28;6.33;;;;;;;;;;779523;76;26764;-74
2022/04/10 01:49:31;;;;;;;7.00;6.30;;;;;;;;;;750545;79;26286;-76
2022/04/10 01:50:36;;;;;;;8.25;6.17;;;;;;;;;;750511;79;26334;-76
2022/04/10 01:51:41;;;;;;;7.72;6.45;;;;;;;;;;750451;79;26699;-78
2022/04/10 01:52:43;;;;;;;9.60;6.50;;;;;;;;;;750353;79;26266;-77
2022/04/10 01:53:48;;;;;;;8.85;6.45;;;;;;;;;;750126;79;26697;-76
2022/04/10 01:54:53;;;;;;;11.05;6.50;;;;;;;;;;750165;79;26704;-77
2022/04/10 02:02:07;;;;;;;7.15;6.40;;;;;;;;;;792295;75;26171;-76
2022/04/10 02:03:15;;;;;;;10.48;5.75;;;;;;;;;;792371;75;26768;-77
2022/04/10 02:04:25;;;;;;;7.22;6.20;;;;;;;;;;792284;75;26233;-76
2022/04/10 02:05:29;;;;;;;9.33;6.37;;;;;;;;;;792354;75;26683;-76
2022/04/10 02:08:48;;;;;;;9.40;6.65;;;;;;;;;;792889;75;26243;-75
2022/04/10 02:09:52;;;;;;;10.10;6.85;;;;;;;;;;761586;78;26689;-76
2022/04/10 02:10:58;;;;;;;7.45;6.62;;;;;;;;;;746114;79;26389;-75
2022/04/10 02:12:05;;;;;;;7.75;6.35;;;;;;;;;;726930;81;26350;-76
2022/04/10 02:13:08;;;;;;;9.50;6.35;;;;;;;;;;746108;79;26343;-75
2022/04/10 02:14:13;;;;;;;7.55;6.35;;;;;;;;;;746141;79;26285;-77
2022/04/10 02:20:40;;;;;;;8.10;5.65;;;;;;;;;;804444;74;26165;-76
2022/04/10 02:21:43;;;;;;;8.50;6.30;;;;;;;;;;804904;74;26327;-76
2022/04/10 02:22:46;;;;;;;8.40;6.58;;;;;;;;;;805767;74;26265;-76
2022/04/10 02:23:49;;;;;;;8.23;5.97;;;;;;;;;;804730;74;26238;-76
2022/04/10 02:24:53;;;;;;;8.60;6.00;;;;;;;;;;804364;74;26235;-77
2022/04/10 02:27:59;;;;;;;5.97;5.37;;;;;;;;;;804899;74;26152;-76
2022/04/10 02:29:02;;;;;;;6.78;5.50;;;;;;;;;;746152;79;26252;-76
2022/04/10 02:30:07;;;;;;;8.23;5.72;;;;;;;;;;746232;79;26706;-76
2022/04/10 02:31:11;;;;;;;8.65;6.12;;;;;;;;;;740544;79;26263;-76
2022/04/10 02:32:15;;;;;;;7.12;5.60;;;;;;;;;;746286;79;26331;-77
2022/04/10 02:33:21;;;;;;;6.50;5.42;;;;;;;;;;746225;79;26252;-76
2022/04/10 02:34:25;;;;;;;6.33;5.65;;;;;;;;;;746234;79;26720;-77
2022/04/10 02:35:29;;;;;;;6.67;5.92;;;;;;;;;;746165;79;26263;-76
2022/04/10 02:40:00;;;;;;;6.05;5.45;;;;;;;;;;736279;80;26388;-77
2022/04/10 02:41:03;;;;;;;6.25;5.50;;;;;;;;;;736203;80;26292;-77
2022/04/10 02:50:01;;;;;;;6.42;4.83;;;;;;;;;;738394;80;26343;-76
2022/04/10 02:51:07;;;;;;;6.80;4.90;;;;;;;;;;738237;80;26326;-76
2022/04/10 02:52:12;;;;;;;5.67;5.17;;;;;;;;;;738195;80;26263;-77
2022/04/10 02:53:15;;;;;;;7.58;5.75;;;;;;;;;;738137;80;26267;-77
2022/04/10 02:54:18;;;;;;;8.45;6.05;;;;;;;;;;738056;80;26279;-76
2022/04/10 02:55:21;;;;;;;7.10;5.33;;;;;;;;;;738725;80;26264;-77
2022/04/10 02:59:52;;;;;;;6.47;5.00;;;;;;;;;;747935;79;26649;-76
2022/04/10 03:00:59;;;;;;;6.97;5.03;;;;;;;;;;764732;77;26321;-74
2022/04/10 03:02:03;;;;;;;5.72;5.22;;;;;;;;;;765593;77;26310;-76
2022/04/10 03:03:08;;;;;;;6.45;5.47;;;;;;;;;;752244;79;26254;-78
2022/04/10 03:04:12;;;;;;;10.40;6.00;;;;;;;;;;764788;77;26252;-77
2022/04/10 03:05:17;;;;;;;7.10;5.70;;;;;;;;;;764638;77;26248;-76
2022/04/10 03:09:51;;;;;;;6.10;5.47;;;;;;;;;;749792;79;26720;-75
2022/04/10 03:10:57;;;;;;;7.30;5.25;;;;;;;;;;749542;79;26768;-76
2022/04/10 03:12:04;;;;;;;10.38;6.70;;;;;;;;;;763044;78;26274;-74
2022/04/10 03:18:02;;;;;;;6.95;5.83;;;;;;;;;;768298;77;26324;-75
2022/04/10 03:19:05;;;;;;;7.22;5.55;;;;;;;;;;768084;77;26260;-76
2022/04/10 03:20:11;;;;;;;9.50;6.10;;;;;;;;;;767867;77;26343;-75
2022/04/10 03:21:13;;;;;;;7.65;5.47;;;;;;;;;;767860;77;26253;-77
2022/04/10 03:22:17;;;;;;;6.58;5.87;;;;;;;;;;767881;77;24319;-75
2022/04/10 03:23:22;;;;;;;9.10;5.60;;;;;;;;;;767894;77;26702;-76
2022/04/10 03:24:27;;;;;;;7.62;5.60;;;;;;;;;;757206;77;26273;-77
2022/04/10 03:27:48;;;;;;;7.72;5.60;;;;;;;;;;768076;77;26706;-80
2022/04/10 03:28:53;;;;;;;6.75;5.60;;;;;;;;;;768207;77;26759;-77
2022/04/10 03:35:03;;;;;;;8.45;6.40;;;;;;;;;;762368;78;26272;-77
2022/04/10 03:38:35;;;;;;;11.53;9.30;;;;;;;;;;738357;80;26226;-76
2022/04/10 03:39:38;;;;;;;9.20;7.80;;;;;;;;;;738247;80;26733;-77
2022/04/10 03:40:41;;;;;;;10.13;7.80;;;;;;;;;;738190;80;26269;-77
2022/04/10 03:41:48;;;;;;;6.78;6.10;;;;;;;;;;738205;80;26261;-77
2022/04/10 03:42:51;;;;;;;8.38;5.58;;;;;;;;;;738232;80;26273;-75
2022/04/10 03:43:54;;;;;;;7.53;6.03;;;;;;;;;;738270;80;26791;-75
2022/04/10 03:44:57;;;;;;;6.45;5.85;;;;;;;;;;738182;80;26718;-77
2022/04/10 03:48:16;;;;;;;10.38;7.30;;;;;;;;;;743747;80;26327;-76
2022/04/10 03:49:22;;;;;;;12.00;7.37;;;;;;;;;;743582;80;26366;-78
2022/04/10 03:50:26;;;;;;;7.55;6.78;;;;;;;;;;743473;80;26335;-77
2022/04/10 03:51:34;;;;;;;10.23;6.95;;;;;;;;;;743521;80;26803;-76
2022/04/10 03:52:40;;;;;;;7.65;5.65;;;;;;;;;;739598;79;26720;-80
2022/04/10 03:53:45;;;;;;;6.12;5.45;;;;;;;;;;743528;80;26277;-78
2022/04/10 03:54:49;;;;;;;7.55;6.28;;;;;;;;;;743532;80;26272;-77
2022/04/10 03:58:10;;;;;;;7.45;6.20;;;;;;;;;;743826;80;26221;-76
2022/04/10 03:59:13;;;;;;;7.55;5.50;;;;;;;;;;755923;78;26363;-80
2022/04/10 04:00:16;;;;;;;6.12;5.55;;;;;;;;;;756215;78;26700;-77
2022/04/10 04:01:20;;;;;;;8.45;6.00;;;;;;;;;;756144;78;26750;-80
2022/04/10 04:02:23;;;;;;;6.90;5.90;;;;;;;;;;756514;78;26274;-77
2022/04/10 04:03:26;;;;;;;9.70;6.60;;;;;;;;;;757407;78;26262;-77
2022/04/10 04:04:30;;;;;;;6.85;6.15;;;;;;;;;;756558;78;26250;-78
2022/04/10 04:07:36;;;;;;;10.13;6.47;;;;;;;;;;756068;78;26280;-77
2022/04/10 04:08:41;;;;;;;8.50;6.12;;;;;;;;;;726387;81;26294;-76
2022/04/10 04:09:45;;;;;;;7.75;6.55;;;;;;;;;;726369;81;26284;-78
2022/04/10 04:10:50;;;;;;;7.92;6.62;;;;;;;;;;726397;81;26393;-76
2022/04/10 04:11:55;;;;;;;9.55;7.50;;;;;;;;;;726417;81;26748;-77
2022/04/10 04:14:46;;;;;;;9.00;6.83;;;;;;;;;;777671;74;26738;-80
2022/04/10 04:22:41;;;;;;;8.50;7.10;;;;;;;;;;769353;77;26250;-79
2022/04/10 04:23:45;;;;;;;8.15;7.35;;;;;;;;;;768751;77;26716;-77
2022/04/10 04:24:48;;;;;;;7.90;7.08;;;;;;;;;;768500;77;26244;-77
2022/04/10 04:44:46;;;;;;;14.23;12.75;;;;;;;;;;772476;76;26238;-76
2022/04/10 04:48:00;;;;;;;14.18;12.78;;;;;;;;;;772508;75;26237;-78
2022/04/10 04:49:05;;;;;;;15.20;13.35;;;;;;;;;;773087;77;26281;-77
2022/04/10 04:50:09;;;;;;;15.65;13.93;;;;;;;;;;773233;77;26254;-77
2022/04/10 04:51:15;;;;;;;15.00;13.50;;;;;;;;;;773276;77;26236;-77
2022/04/10 04:52:18;;;;;;;15.98;14.25;;;;;;;;;;773118;76;26252;-77
2022/04/10 04:53:21;;;;;;;15.05;13.53;;;;;;;;;;772294;76;26741;-80
2022/04/10 04:54:24;;;;;;;16.15;14.40;;;;;;;;;;772550;76;26243;-79
2022/04/10 04:57:46;;;;;;;18.40;15.05;;;;;;;;;;802119;73;26264;-78
2022/04/10 04:58:49;;;;;;;16.60;14.83;;;;;;;;;;801806;74;26273;-78
2022/04/10 04:59:54;;;;;;;16.57;14.20;;;;;;;;;;801855;74;26239;-78
2022/04/10 05:00:58;;;;;;;17.48;14.80;;;;;;;;;;802269;74;26284;-77
2022/04/10 05:02:06;;;;;;;17.77;14.70;;;;;;;;;;786357;75;26231;-79
2022/04/10 05:03:12;;;;;;;17.30;14.68;;;;;;;;;;784926;75;26304;-78
2022/04/10 05:08:31;;;;;;;17.15;14.40;;;;;;;;;;802159;74;26169;-77
2022/04/10 05:09:35;;;;;;;16.00;14.23;;;;;;;;;;774502;76;26313;-80
2022/04/10 05:10:38;;;;;;;19.75;16.02;;;;;;;;;;774473;76;26326;-79
2022/04/10 05:18:35;;;;;;;17.87;15.13;;;;;;;;;;771603;77;26298;-77
2022/04/10 05:19:37;;;;;;;20.70;16.05;;;;;;;;;;771432;77;26274;-77
2022/04/10 05:20:42;;;;;;;17.02;14.47;;;;;;;;;;771240;77;26292;-75
2022/04/10 05:21:45;;;;;;;19.23;15.35;;;;;;;;;;771254;77;26240;-76
2022/04/10 05:22:48;;;;;;;19.23;15.55;;;;;;;;;;771465;77;26240;-77
2022/04/10 05:23:51;;;;;;;18.87;15.85;;;;;;;;;;771354;77;26326;-77
2022/04/10 05:28:43;;;;;;;17.90;14.60;;;;;;;;;;787612;75;26244;-78
2022/04/10 05:29:46;;;;;;;16.40;13.60;;;;;;;;;;788011;75;26295;-78
2022/04/10 05:30:49;;;;;;;19.40;15.60;;;;;;;;;;787821;75;26666;-76
2022/04/10 05:31:52;;;;;;;21.80;15.32;;;;;;;;;;787198;75;26288;-77
2022/04/10 05:32:57;;;;;;;19.32;15.13;;;;;;;;;;785929;75;26644;-77
2022/04/10 05:33:59;;;;;;;17.92;14.95;;;;;;;;;;789460;75;26732;-78
2022/04/10 05:37:43;;;;;;;17.07;14.95;;;;;;;;;;789096;73;26196;-75
2022/04/10 05:38:50;;;;;;;20.75;15.80;;;;;;;;;;783798;76;26223;-77
2022/04/10 05:39:54;;;;;;;22.17;16.55;;;;;;;;;;783678;76;26214;-78
2022/04/10 05:41:00;;;;;;;18.90;15.53;;;;;;;;;;782654;75;26796;-79
2022/04/10 05:42:02;;;;;;;18.48;15.48;;;;;;;;;;782847;76;26226;-79
2022/04/10 05:43:07;;;;;;;20.40;15.90;;;;;;;;;;782869;76;26674;-77
2022/04/10 05:44:19;;;;;;;20.40;16.37;;;;;;;;;;782515;76;26679;-78
2022/04/10 05:47:52;;;;;;;18.80;15.38;;;;;;;;;;788812;73;26725;-76
2022/04/10 05:48:54;;;;;;;17.67;14.05;;;;;;;;;;800723;74;26236;-80
2022/04/10 05:50:00;;;;;;;17.35;14.07;;;;;;;;;;800539;74;26236;-80
2022/04/10 05:51:03;;;;;;;19.15;14.65;;;;;;;;;;800386;74;26687;-77
2022/04/10 06:00:28;;;;;;;16.52;13.95;;;;;;;;;;794498;73;26184;-85
2022/04/10 06:01:28;;;;;;;14.60;12.50;;;;;;;;;;791973;75;26213;-82
2022/04/10 06:02:32;;;;;;;16.02;13.05;;;;;;;;;;792938;75;26195;-78
2022/04/10 06:03:35;;;;;;;17.42;14.45;;;;;;;;;;792954;75;26204;-76
2022/04/10 06:08:10;;;;;;;16.35;13.30;;;;;;;;;;782045;76;26313;-76
2022/04/10 06:09:17;;;;;;;15.95;12.53;;;;;;;;;;775267;76;26242;-77
2022/04/10 06:10:22;;;;;;;14.70;13.03;;;;;;;;;;774362;76;26698;-76
2022/04/10 06:13:24;;;;;;;15.88;12.93;;;;;;;;;;759614;77;26230;-76
2022/04/10 06:18:12;;;;;;;14.98;12.37;;;;;;;;;;792745;75;26155;-76
2022/04/10 06:19:19;;;;;;;14.73;12.23;;;;;;;;;;790053;75;26211;-74
2022/04/10 06:20:27;;;;;;;14.93;11.78;;;;;;;;;;790538;75;26235;-76
2022/04/10 06:21:52;;;;;;;14.40;12.20;;;;;;;;;;778400;76;26306;-77
2022/04/10 06:23:00;;;;;;;14.63;12.85;;;;;;;;;;784199;76;26248;-80
2022/04/10 06:24:13;;;;;;;14.05;10.93;;;;;;;;;;783719;76;26762;-79
2022/04/10 06:26:51;;;;;;;13.03;10.93;;;;;;;;;;799614;73;26258;-77
2022/04/10 06:27:58;;;;;;;14.00;11.35;;;;;;;;;;806940;73;26676;-75
2022/04/10 06:29:06;;;;;;;12.37;10.50;;;;;;;;;;806969;73;26313;-76
2022/04/10 06:30:13;;;;;;;12.15;10.43;;;;;;;;;;808518;73;26296;-76
2022/04/10 06:31:17;;;;;;;12.95;10.45;;;;;;;;;;807705;73;26295;-76
2022/04/10 06:32:26;;;;;;;14.38;10.68;;;;;;;;;;807165;73;26230;-78
2022/04/10 06:33:35;;;;;;;12.33;10.40;;;;;;;;;;806816;73;26222;-77
2022/04/10 06:36:48;;;;;;;11.85;9.83;;;;;;;;;;787304;75;26230;-77
2022/04/10 06:38:15;;;;;;;11.05;9.70;;;;;;;;;;780231;75;26325;-78
2022/04/10 06:39:23;;;;;;;10.03;9.03;;;;;;;;;;787402;75;26239;-77
2022/04/10 06:40:30;;;;;;;10.40;8.88;;;;;;;;;;771792;76;26715;-76
2022/04/10 06:41:36;;;;;;;9.15;8.23;;;;;;;;;;774056;75;26257;-78
2022/04/10 06:42:40;;;;;;;9.28;8.28;;;;;;;;;;787784;75;26230;-77
2022/04/10 06:43:43;;;;;;;10.38;8.70;;;;;;;;;;788168;75;26241;-77
2022/04/10 06:48:40;;;;;;;8.40;7.60;;;;;;;;;;795342;74;26151;-72
2022/04/10 06:49:43;;;;;;;10.43;8.33;;;;;;;;;;795228;74;26311;-71
2022/04/10 06:50:46;;;;;;;9.20;7.95;;;;;;;;;;795267;74;26234;-72
2022/04/10 06:51:51;;;;;;;8.93;8.03;;;;;;;;;;795238;74;26225;-71
2022/04/10 06:52:54;;;;;;;9.13;8.13;;;;;;;;;;795525;73;26661;-73
2022/04/10 06:53:57;;;;;;;9.58;8.68;;;;;;;;;;796033;74;26229;-71
2022/04/10 06:58:40;;;;;;;8.40;7.60;;;;;;;;;;772205;77;26191;-72
2022/04/10 06:59:44;;;;;;;8.78;7.87;;;;;;;;;;772126;76;26295;-71
2022/04/10 07:00:47;;;;;;;8.53;7.40;;;;;;;;;;772020;77;26679;-72
2022/04/10 07:01:50;;;;;;;8.20;7.40;;;;;;;;;;772131;76;26283;-70
2022/04/10 07:02:56;;;;;;;8.25;7.47;;;;;;;;;;772079;77;26229;-72
2022/04/10 07:04:01;;;;;;;8.65;6.97;;;;;;;;;;772359;77;26323;-72
2022/04/10 07:07:22;;;;;;;7.15;6.45;;;;;;;;;;775554;76;26695;-71
2022/04/10 07:08:29;;;;;;;7.67;6.75;;;;;;;;;;775672;76;26667;-72
2022/04/10 07:09:32;;;;;;;7.95;7.15;;;;;;;;;;775797;76;26276;-72
2022/04/10 07:18:03;;;;;;;5.65;4.72;;;;;;;;;;794809;74;26594;-72
2022/04/10 07:19:08;;;;;;;6.37;5.58;;;;;;;;;;795151;74;26252;-72
2022/04/10 07:20:12;;;;;;;6.83;5.70;;;;;;;;;;794795;74;26295;-71
2022/04/10 07:23:41;;;;;;;5.70;5.20;;;;;;;;;;780395;76;26717;-71
2022/04/10 07:23:46;;;;;;;6.10;5.50;;;;;;;;;;796021;74;26266;-71
2022/04/10 07:32:46;;;;;;;5.05;4.55;;;;;;;;;;780884;76;26183;-72
2022/04/10 07:33:50;;;;;;;5.30;4.80;;;;;;;;;;795734;74;26182;-73
2022/04/10 07:37:10;;;;;;;5.33;4.83;;;;;;;;;;761921;78;26184;-74
2022/04/10 07:38:15;;;;;;;5.10;4.60;;;;;;;;;;747499;79;26728;-73
2022/04/10 07:39:36;;;;;;;4.37;4.05;;;;;;;;;;749243;79;26370;-79
2022/04/10 07:40:44;;;;;;;4.55;4.15;;;;;;;;;;755703;78;26221;-77
2022/04/10 07:41:47;;;;;;;4.80;4.40;;;;;;;;;;761990;78;26251;-75
2022/04/10 07:42:51;;;;;;;5.03;4.53;;;;;;;;;;747808;79;26770;-78
2022/04/10 07:48:44;;;;;;;5.10;4.58;;;;;;;;;;750584;79;26726;-75
2022/04/10 07:49:48;;;;;;;4.53;4.12;;;;;;;;;;750526;79;26345;-77
2022/04/10 07:50:52;;;;;;;5.03;4.58;;;;;;;;;;764345;77;26675;-75
2022/04/10 07:51:57;;;;;;;4.67;4.25;;;;;;;;;;763697;77;26704;-76
2022/04/10 07:53:05;;;;;;;4.40;4.03;;;;;;;;;;763255;77;26658;-77
2022/04/10 07:57:37;;;;;;;4.08;3.67;;;;;;;;;;792322;75;26601;-75
2022/04/10 07:58:41;;;;;;;5.00;3.77;;;;;;;;;;792232;75;26266;-75
2022/04/10 07:59:45;;;;;;;4.35;3.90;;;;;;;;;;792247;75;26228;-77
2022/04/10 08:00:50;;;;;;;4.45;4.05;;;;;;;;;;792324;75;26633;-77
2022/04/10 08:01:53;;;;;;;4.90;4.05;;;;;;;;;;792306;75;26281;-78
2022/04/10 08:02:56;;;;;;;4.35;3.95;;;;;;;;;;792367;75;26228;-78
2022/04/10 08:07:17;;;;;;;3.22;3.02;;;;;;;;;;763295;74;26288;-76
2022/04/10 08:08:19;;;;;;;3.35;3.15;;;;;;;;;;760630;78;26335;-77
2022/04/10 08:09:23;;;;;;;3.47;3.17;;;;;;;;;;759942;78;26377;-76
2022/04/10 08:10:26;;;;;;;3.50;3.30;;;;;;;;;;759274;78;26311;-77
2022/04/10 08:11:31;;;;;;;3.40;3.10;;;;;;;;;;775931;76;26262;-76
2022/04/10 08:12:36;;;;;;;3.83;3.40;;;;;;;;;;775881;76;26373;-77
2022/04/10 08:18:53;;;;;;;2.60;2.40;;;;;;;;;;771914;77;26233;-78
2022/04/10 08:19:57;;;;;;;2.50;2.40;;;;;;;;;;771776;75;26250;-78
2022/04/10 08:21:01;;;;;;;2.52;2.35;;;;;;;;;;771969;77;26316;-77
2022/04/10 08:22:07;;;;;;;2.45;2.35;;;;;;;;;;771883;77;26262;-77
2022/04/10 08:23:13;;;;;;;2.33;2.22;;;;;;;;;;769758;77;26296;-78
2022/04/10 08:27:55;;;;;;;1.90;1.80;;;;;;;;;;772731;77;26252;-75
2022/04/10 08:28:59;;;;;;;2.40;2.20;;;;;;;;;;772761;77;26249;-77
2022/04/10 08:30:07;;;;;;;2.00;1.90;;;;;;;;;;758023;78;26255;-77
2022/04/10 08:31:28;;;;;;;2.80;2.40;;;;;;;;;;758991;78;26253;-76
2022/04/10 08:32:40;;;;;;;3.40;2.30;;;;;;;;;;758512;78;26315;-77
2022/04/10 08:36:19;;;;;;;2.83;2.60;;;;;;;;;;759409;78;26175;-77
2022/04/10 08:37:26;;;;;;;2.17;2.02;;;;;;;;;;751187;79;26259;-76
2022/04/10 08:38:32;;;;;;;2.05;1.95;;;;;;;;;;751512;77;26304;-78
2022/04/10 08:39:35;;;;;;;1.95;1.85;;;;;;;;;;751458;79;26257;-76
2022/04/10 08:40:38;;;;;;;1.90;1.80;;;;;;;;;;750957;79;26236;-77
2022/04/10 08:41:41;;;;;;;2.10;2.00;;;;;;;;;;750473;79;26249;-76
2022/04/10 08:42:48;;;;;;;1.90;1.80;;;;;;;;;;750602;79;26721;-79
2022/04/10 08:46:01;;;;;;;3.47;2.20;;;;;;;;;;786040;73;26315;-80
2022/04/10 08:47:05;;;;;;;1.95;1.85;;;;;;;;;;760283;78;26250;-80
2022/04/10 08:48:13;;;;;;;1.90;1.80;;;;;;;;;;760594;78;26252;-78
2022/04/10 08:49:19;;;;;;;1.70;1.60;;;;;;;;;;760744;78;26256;-79
2022/04/10 08:50:27;;;;;;;1.70;1.70;;;;;;;;;;760635;78;26360;-80
2022/04/10 08:51:41;;;;;;;2.00;1.90;;;;;;;;;;757941;78;26314;-78
2022/04/10 08:53:02;;;;;;;2.00;1.90;;;;;;;;;;759319;78;26257;-78
2022/04/10 08:56:09;;;;;;;1.80;1.70;;;;;;;;;;788919;75;26296;-77
2022/04/10 08:57:15;;;;;;;2.60;1.85;;;;;;;;;;788774;75;26775;-79
2022/04/10 08:58:36;;;;;;;2.10;2.00;;;;;;;;;;819012;72;26209;-75
2022/04/10 09:06:26;;;;;;;2.30;1.90;;;;;;;;;;762461;78;26241;-75
2022/04/10 09:07:32;;;;;;;2.00;1.90;;;;;;;;;;757625;78;26263;-74
2022/04/10 09:08:36;;;;;;;1.90;1.80;;;;;;;;;;762435;77;26752;-75
2022/04/10 09:09:57;;;;;;;1.90;1.75;;;;;;;;;;757862;77;26264;-74
2022/04/10 09:11:05;;;;;;;1.55;1.50;;;;;;;;;;762379;78;26268;-76
2022/04/10 09:12:18;;;;;;;1.77;1.67;;;;;;;;;;757691;78;26265;-77
2022/04/10 09:13:22;;;;;;;1.67;1.60;;;;;;;;;;762330;78;26255;-77
2022/04/10 09:17:29;;;;;;;1.90;1.80;;;;;;;;;;711706;81;26852;-76
2022/04/10 09:18:31;;;;;;;1.95;1.85;;;;;;;;;;719390;82;26329;-77
2022/04/10 09:19:36;;;;;;;2.75;2.55;;;;;;;;;;718665;82;26410;-78
2022/04/10 09:20:39;;;;;;;2.10;2.00;;;;;;;;;;756778;77;26270;-76
2022/04/10 09:21:44;;;;;;;2.45;1.90;;;;;;;;;;767639;77;26394;-74
2022/04/10 09:22:48;;;;;;;1.95;1.85;;;;;;;;;;768259;77;26259;-77
2022/04/10 09:28:23;;;;;;;1.82;1.72;;;;;;;;;;782816;73;26268;-75
2022/04/10 09:29:27;;;;;;;1.80;1.70;;;;;;;;;;795616;73;26285;-76
2022/04/10 09:30:32;;;;;;;1.72;1.60;;;;;;;;;;814224;73;26219;-78
2022/04/10 09:31:43;;;;;;;1.67;1.57;;;;;;;;;;817147;73;26224;-77
2022/04/10 09:32:50;;;;;;;1.60;1.55;;;;;;;;;;799712;74;26272;-76
2022/04/10 09:37:04;;;;;;;1.60;1.50;;;;;;;;;;791078;75;26239;-80
2022/04/10 09:38:10;;;;;;;1.40;1.40;;;;;;;;;;791287;75;26322;-76
2022/04/10 09:39:17;;;;;;;2.17;2.08;;;;;;;;;;791402;75;26231;-77
2022/04/10 09:40:27;;;;;;;1.60;1.50;;;;;;;;;;791358;75;26320;-76
2022/04/10 09:41:38;;;;;;;1.90;1.80;;;;;;;;;;791302;75;26231;-76
2022/04/10 09:42:48;;;;;;;1.60;1.50;;;;;;;;;;790864;75;26227;-77
2022/04/10 09:45:31;;;;;;;1.65;1.55;;;;;;;;;;823389;71;26268;-75
2022/04/10 09:46:34;;;;;;;1.60;1.50;;;;;;;;;;837842;71;26287;-75
2022/04/10 09:56:37;;;;;;;1.80;1.70;;;;;;;;;;783902;72;26286;-76
2022/04/10 09:57:45;;;;;;;1.65;1.55;;;;;;;;;;783084;75;26236;-76
2022/04/10 09:58:52;;;;;;;1.70;1.60;;;;;;;;;;783887;75;26247;-77
2022/04/10 09:59:58;;;;;;;1.65;1.55;;;;;;;;;;784053;75;26236;-75
2022/04/10 10:01:03;;;;;;;2.27;2.08;;;;;;;;;;784035;75;26234;-75
2022/04/10 10:02:12;;;;;;;2.00;1.90;;;;;;;;;;783342;75;26329;-76
2022/04/10 10:07:06;;;;;;;2.45;2.10;;;;;;;;;;775644;76;26308;-76
2022/04/10 10:08:11;;;;;;;2.10;1.85;;;;;;;;;;775368;76;26641;-76
2022/04/10 10:09:15;;;;;;;2.15;1.98;;;;;;;;;;775621;76;26248;-79
2022/04/10 10:10:21;;;;;;;2.27;2.08;;;;;;;;;;775768;76;26249;-78
2022/04/10 10:11:24;;;;;;;1.98;1.80;;;;;;;;;;775196;76;26251;-78
2022/04/10 10:12:30;;;;;;;2.30;2.00;;;;;;;;;;775420;76;26247;-81
2022/04/10 10:17:06;;;;;;;1.98;1.82;;;;;;;;;;775096;73;26706;-77
2022/04/10 10:18:15;;;;;;;2.37;1.72;;;;;;;;;;767251;77;26247;-75
2022/04/10 10:19:19;;;;;;;1.60;1.50;;;;;;;;;;753656;78;26244;-78
2022/04/10 10:20:26;;;;;;;1.80;1.70;;;;;;;;;;772445;75;26238;-77
2022/04/10 10:21:31;;;;;;;1.90;1.75;;;;;;;;;;784427;75;26310;-77
2022/04/10 10:22:38;;;;;;;2.70;2.50;;;;;;;;;;784638;75;26745;-78
2022/04/10 10:25:52;;;;;;;2.83;2.20;;;;;;;;;;780494;75;26260;-78
2022/04/10 10:27:01;;;;;;;2.27;2.08;;;;;;;;;;779888;76;26747;-77
2022/04/10 10:28:26;;;;;;;1.72;1.55;;;;;;;;;;779429;76;26260;-79
2022/04/10 10:29:55;;;;;;;1.82;1.72;;;;;;;;;;779335;76;26255;-78
2022/04/10 10:31:15;;;;;;;1.67;1.57;;;;;;;;;;779288;76;26310;-76
2022/04/10 10:32:21;;;;;;;1.70;1.60;;;;;;;;;;779241;76;26255;-78
2022/04/10 10:39:04;;;;;;;2.62;2.40;;;;;;;;;;790583;75;26230;-79
2022/04/10 10:40:13;;;;;;;2.30;2.10;;;;;;;;;;790497;75;26675;-78
2022/04/10 10:41:20;;;;;;;1.80;1.70;;;;;;;;;;791002;75;26754;-78
2022/04/10 10:42:27;;;;;;;2.20;2.00;;;;;;;;;;773132;76;26250;-82
2022/04/10 10:51:12;;;;;;;1.70;1.60;;;;;;;;;;776244;76;26179;-78
2022/04/10 10:52:20;;;;;;;1.45;1.45;;;;;;;;;;775834;76;26708;-80
2022/04/10 10:57:28;;;;;;;2.90;2.50;;;;;;;;;;776645;76;26281;-81
2022/04/10 10:58:32;;;;;;;2.60;2.40;;;;;;;;;;773061;76;26439;-84
2022/04/10 10:59:43;;;;;;;2.98;2.67;;;;;;;;;;775741;76;26339;-82
2022/04/10 11:00:47;;;;;;;2.72;2.55;;;;;;;;;;775508;76;26289;-77
2022/04/10 11:01:56;;;;;;;2.70;2.50;;;;;;;;;;775751;76;26247;-77
2022/04/10 11:05:40;;;;;;;3.05;2.30;;;;;;;;;;776379;76;26262;-77
2022/04/10 11:06:45;;;;;;;2.10;1.90;;;;;;;;;;770191;77;26763;-76
2022/04/10 11:14:29;;;;;;;2.25;2.05;;;;;;;;;;769566;77;26166;-78
2022/04/10 11:15:49;;;;;;;2.37;2.17;;;;;;;;;;788954;74;26225;-78
2022/04/10 11:17:09;;;;;;;2.02;1.92;;;;;;;;;;789712;75;26713;-78
2022/04/10 11:19:55;;;;;;;2.95;2.17;;;;;;;;;;766851;74;26405;-76
2022/04/10 11:27:39;;;;;;;2.00;1.90;;;;;;;;;;746970;79;24625;-80
2022/04/10 11:28:55;;;;;;;2.35;2.15;;;;;;;;;;762654;76;26775;-78
2022/04/10 11:30:04;;;;;;;2.72;2.52;;;;;;;;;;749982;79;26310;-77
2022/04/10 11:31:09;;;;;;;2.85;2.58;;;;;;;;;;751971;78;26252;-78
2022/04/10 11:32:20;;;;;;;2.72;2.52;;;;;;;;;;760555;77;26265;-77
2022/04/10 11:39:12;;;;;;;3.33;2.58;;;;;;;;;;776158;75;26379;-75
2022/04/10 11:40:20;;;;;;;2.60;2.42;;;;;;;;;;777295;75;26312;-76
2022/04/10 11:41:24;;;;;;;2.55;2.42;;;;;;;;;;776517;75;26765;-78
2022/04/10 11:44:41;;;;;;;2.58;2.37;;;;;;;;;;776817;75;26275;-77
2022/04/10 11:45:45;;;;;;;2.87;2.50;;;;;;;;;;760236;78;26776;-75
2022/04/10 11:46:49;;;;;;;3.02;2.83;;;;;;;;;;760214;78;26234;-78
2022/04/10 11:47:53;;;;;;;2.83;2.72;;;;;;;;;;759951;78;26261;-79
2022/04/10 11:49:10;;;;;;;2.62;2.45;;;;;;;;;;760534;78;26758;-79